Time;durP1;ratioP1;P1;durP2;ratioP2;P2;SDS_P1;SDS_P2;PMS_P1;PMS_P2;Temp;Humidity;BMP_temperature;BMP_pressure;BME280_temperature;BME280_humidity;BME280_pressure;Samples;Min_cycle;Max_cycle;Signal;HPM_P1;HPM_P2
2022/10/06 00:00:15;;;;;;;;;;;;;;;;;;5076676;28;19964;-87
2022/10/06 00:02:40;;;;;;;;;;;;;;;;;;5059128;28;19917;-87
2022/10/06 00:05:06;;;;;;;;;;;;;;;;;;5077014;28;19912;-87
2022/10/06 00:07:40;;;;;;;;;;;;;;;;;;5076966;28;20015;-87
2022/10/06 00:10:06;;;;;;;;;;;;;;;;;;5077723;28;19944;-87
2022/10/06 00:12:45;;;;;;;;;;;;;;;;;;5075349;28;19971;-87
2022/10/06 00:15:10;;;;;;;;;;;;;;;;;;5076536;28;20012;-87
2022/10/06 00:17:36;;;;;;;;;;;;;;;;;;5058658;28;19912;-87
2022/10/06 00:20:01;;;;;;;;;;;;;;;;;;5076583;28;19920;-87
2022/10/06 00:22:36;;;;;;;;;;;;;;;;;;5076755;28;20120;-87
2022/10/06 00:25:01;;;;;;;;;;;;;;;;;;5074960;28;19923;-87
2022/10/06 00:27:31;;;;;;;;;;;;;;;;;;5076284;28;19916;-87
2022/10/06 00:29:57;;;;;;;;;;;;;;;;;;5076240;28;19916;-87
2022/10/06 00:32:22;;;;;;;;;;;;;;;;;;5076375;28;19920;-87
2022/10/06 00:34:47;;;;;;;;;;;;;;;;;;5058378;28;20303;-87
2022/10/06 00:37:13;;;;;;;;;;;;;;;;;;5057829;28;19916;-87
2022/10/06 00:39:38;;;;;;;;;;;;;;;;;;5058497;28;20012;-87
2022/10/06 00:42:03;;;;;;;;;;;;;;;;;;5076037;28;19916;-87
2022/10/06 00:44:29;;;;;;;;;;;;;;;;;;5076085;28;20027;-87
2022/10/06 00:46:55;;;;;;;;;;;;;;;;;;5075957;28;20015;-87
2022/10/06 00:49:30;;;;;;;;;;;;;;;;;;5058091;28;19966;-86
2022/10/06 00:52:03;;;;;;;;;;;;;;;;;;5074609;28;19917;-87
2022/10/06 00:54:29;;;;;;;;;;;;;;;;;;5074893;28;19924;-88
2022/10/06 00:56:54;;;;;;;;;;;;;;;;;;5074354;28;19921;-87
2022/10/06 00:59:20;;;;;;;;;;;;;;;;;;5084497;28;19927;-87
2022/10/06 01:01:48;;;;;;;;;;;;;;;;;;5075668;28;20337;-87
2022/10/06 01:04:13;;;;;;;;;;;;;;;;;;5091449;28;19927;-87
2022/10/06 01:06:40;;;;;;;;;;;;;;;;;;5091122;28;19916;-87
2022/10/06 01:09:06;;;;;;;;;;;;;;;;;;5074416;28;19924;-87
2022/10/06 01:11:34;;;;;;;;;;;;;;;;;;5075377;28;19916;-88
2022/10/06 01:13:59;;;;;;;;;;;;;;;;;;5075405;28;20326;-87
2022/10/06 01:16:25;;;;;;;;;;;;;;;;;;5075214;28;20046;-87
2022/10/06 01:18:51;;;;;;;;;;;;;;;;;;5074371;28;19917;-87
2022/10/06 01:21:30;;;;;;;;;;;;;;;;;;5090690;28;19965;-88
2022/10/06 01:23:56;;;;;;;;;;;;;;;;;;5074208;28;19917;-87
2022/10/06 01:26:21;;;;;;;;;;;;;;;;;;5074954;28;19913;-87
2022/10/06 01:28:47;;;;;;;;;;;;;;;;;;5074652;28;19920;-87
2022/10/06 01:31:12;;;;;;;;;;;;;;;;;;5090776;28;20368;-86
2022/10/06 01:33:37;;;;;;;;;;;;;;;;;;5073706;28;20020;-86
2022/10/06 01:36:03;;;;;;;;;;;;;;;;;;5090466;28;19916;-87
2022/10/06 01:38:28;;;;;;;;;;;;;;;;;;5074885;28;19917;-87
2022/10/06 01:40:54;;;;;;;;;;;;;;;;;;5073836;28;19923;-88
2022/10/06 01:43:19;;;;;;;;;;;;;;;;;;5074080;28;19916;-88
2022/10/06 01:45:44;;;;;;;;;;;;;;;;;;5090774;28;19986;-87
2022/10/06 01:48:10;;;;;;;;;;;;;;;;;;5083621;28;19924;-87
2022/10/06 01:50:35;;;;;;;;;;;;;;;;;;5086329;28;19972;-87
2022/10/06 01:53:00;;;;;;;;;;;;;;;;;;5087747;28;19970;-86
2022/10/06 01:55:26;;;;;;;;;;;;;;;;;;5077945;28;19939;-87
2022/10/06 01:57:51;;;;;;;;;;;;;;;;;;5093098;28;19916;-87
2022/10/06 02:00:16;;;;;;;;;;;;;;;;;;5077084;28;19942;-88
2022/10/06 02:02:42;;;;;;;;;;;;;;;;;;5058041;28;19965;-88
2022/10/06 02:05:07;;;;;;;;;;;;;;;;;;5074714;28;20332;-90
2022/10/06 02:07:36;;;;;;;;;;;;;;;;;;5073327;28;19916;-89
2022/10/06 02:10:02;;;;;;;;;;;;;;;;;;5073588;28;19920;-89
2022/10/06 02:12:30;;;;;;;;;;;;;;;;;;5073508;28;20037;-89
2022/10/06 02:14:56;;;;;;;;;;;;;;;;;;5074448;28;19966;-90
2022/10/06 02:17:21;;;;;;;;;;;;;;;;;;5073018;28;19916;-88
2022/10/06 02:19:47;;;;;;;;;;;;;;;;;;5056756;28;19970;-90
2022/10/06 02:22:12;;;;;;;;;;;;;;;;;;5073414;28;19970;-89
2022/10/06 02:24:37;;;;;;;;;;;;;;;;;;5056594;28;19916;-88
2022/10/06 02:27:04;;;;;;;;;;;;;;;;;;5073060;28;19917;-90
2022/10/06 02:29:29;;;;;;;;;;;;;;;;;;5073117;28;19917;-89
2022/10/06 02:31:54;;;;;;;;;;;;;;;;;;5073196;28;19923;-89
2022/10/06 02:34:20;;;;;;;;;;;;;;;;;;5075676;28;19917;-90
2022/10/06 02:36:45;;;;;;;;;;;;;;;;;;5056050;28;19943;-90
2022/10/06 02:39:10;;;;;;;;;;;;;;;;;;5056109;28;19916;-89
2022/10/06 02:41:36;;;;;;;;;;;;;;;;;;5073959;28;19975;-90
2022/10/06 02:44:01;;;;;;;;;;;;;;;;;;5056314;28;20326;-89
2022/10/06 02:46:26;;;;;;;;;;;;;;;;;;5072820;28;19978;-88
2022/10/06 02:48:55;;;;;;;;;;;;;;;;;;5056116;28;20029;-88
2022/10/06 02:51:20;;;;;;;;;;;;;;;;;;5073050;28;19917;-88
2022/10/06 02:53:47;;;;;;;;;;;;;;;;;;5056356;28;19974;-89
2022/10/06 02:56:14;;;;;;;;;;;;;;;;;;5073442;28;19916;-89
2022/10/06 02:58:41;;;;;;;;;;;;;;;;;;5077501;28;19998;-88
2022/10/06 03:01:10;;;;;;;;;;;;;;;;;;5074367;28;20256;-89
2022/10/06 03:03:36;;;;;;;;;;;;;;;;;;5073284;28;19916;-88
2022/10/06 03:06:20;;;;;;;;;;;;;;;;;;5074503;28;19981;-89
2022/10/06 03:09:06;;;;;;;;;;;;;;;;;;5073388;28;19920;-89
2022/10/06 03:11:32;;;;;;;;;;;;;;;;;;5073732;28;19919;-89
2022/10/06 03:13:57;;;;;;;;;;;;;;;;;;5089695;28;20360;-89
2022/10/06 03:16:23;;;;;;;;;;;;;;;;;;5089700;28;19952;-88
2022/10/06 03:18:49;;;;;;;;;;;;;;;;;;5073465;28;19955;-88
2022/10/06 03:21:15;;;;;;;;;;;;;;;;;;5073114;28;19966;-87
2022/10/06 03:23:43;;;;;;;;;;;;;;;;;;5074145;28;20340;-88
2022/10/06 03:26:09;;;;;;;;;;;;;;;;;;5074051;28;19978;-87
2022/10/06 03:28:34;;;;;;;;;;;;;;;;;;5089631;28;20257;-87
2022/10/06 03:31:01;;;;;;;;;;;;;;;;;;5089407;28;20010;-87
2022/10/06 03:33:26;;;;;;;;;;;;;;;;;;5074496;28;19998;-87
2022/10/06 03:35:58;;;;;;;;;;;;;;;;;;5074783;28;19920;-87
2022/10/06 03:38:24;;;;;;;;;;;;;;;;;;5073157;28;19917;-87
2022/10/06 03:40:49;;;;;;;;;;;;;;;;;;5077520;28;20283;-87
2022/10/06 03:43:14;;;;;;;;;;;;;;;;;;5077325;28;19917;-87
2022/10/06 03:45:40;;;;;;;;;;;;;;;;;;5075474;28;20011;-87
2022/10/06 03:48:05;;;;;;;;;;;;;;;;;;5089652;28;20062;-87
2022/10/06 03:50:31;;;;;;;;;;;;;;;;;;5089092;28;20066;-88
2022/10/06 03:52:56;;;;;;;;;;;;;;;;;;5092867;28;20304;-88
2022/10/06 03:55:21;;;;;;;;;;;;;;;;;;5077202;28;19947;-87
2022/10/06 03:57:47;;;;;;;;;;;;;;;;;;5076856;28;19956;-88
2022/10/06 04:00:12;;;;;;;;;;;;;;;;;;5075400;28;19920;-88
2022/10/06 04:02:38;;;;;;;;;;;;;;;;;;5059023;28;19920;-87
2022/10/06 04:05:03;;;;;;;;;;;;;;;;;;5075921;28;20341;-88
2022/10/06 04:07:29;;;;;;;;;;;;;;;;;;5069836;28;19928;-88
2022/10/06 04:09:54;;;;;;;;;;;;;;;;;;5054957;28;19972;-82
2022/10/06 04:12:19;;;;;;;;;;;;;;;;;;5062819;28;19917;-88
2022/10/06 04:14:45;;;;;;;;;;;;;;;;;;5033906;28;19943;-87
2022/10/06 04:17:11;;;;;;;;;;;;;;;;;;5039800;28;19940;-87
2022/10/06 04:19:36;;;;;;;;;;;;;;;;;;5037469;28;20296;-87
2022/10/06 04:22:01;;;;;;;;;;;;;;;;;;5055536;28;20325;-87
2022/10/06 04:24:27;;;;;;;;;;;;;;;;;;5037728;28;20246;-88
2022/10/06 04:26:52;;;;;;;;;;;;;;;;;;5021106;28;19948;-87
2022/10/06 04:29:20;;;;;;;;;;;;;;;;;;5021178;28;19920;-88
2022/10/06 04:31:46;;;;;;;;;;;;;;;;;;5056053;28;20346;-88
2022/10/06 04:34:14;;;;;;;;;;;;;;;;;;5066359;28;19979;-87
2022/10/06 04:36:40;;;;;;;;;;;;;;;;;;5021458;28;20428;-87
2022/10/06 04:39:05;;;;;;;;;;;;;;;;;;5054768;28;19967;-86
2022/10/06 04:41:32;;;;;;;;;;;;;;;;;;5058393;28;19920;-87
2022/10/06 04:44:06;;;;;;;;;;;;;;;;;;5057137;28;19946;-87
2022/10/06 04:46:34;;;;;;;;;;;;;;;;;;5043734;28;20313;-87
2022/10/06 04:49:27;;;;;;;;;;;;;;;;;;5068632;28;19916;-86
2022/10/06 04:52:15;;;;;;;;;;;;;;;;;;5055148;28;19923;-85
2022/10/06 04:54:50;;;;;;;;;;;;;;;;;;5369168;22;19923;-83
2022/10/06 04:57:29;;;;;;;;;;;;;;;;;;5075378;28;19994;-87
2022/10/06 05:02:42;;;;;;;;;;;;;;;;;;5075104;28;19990;-89
2022/10/06 05:05:11;;;;;;;;;;;;;;;;;;5086402;28;19916;-84
2022/10/06 05:07:38;;;;;;;;;;;;;;;;;;5083386;28;19985;-82
2022/10/06 05:10:04;;;;;;;;;;;;;;;;;;5073138;28;19935;-83
2022/10/06 05:12:30;;;;;;;;;;;;;;;;;;5073235;28;19921;-81
2022/10/06 05:14:55;;;;;;;;;;;;;;;;;;5082721;28;19916;-86
2022/10/06 05:17:20;;;;;;;;;;;;;;;;;;5080443;28;20294;-83
2022/10/06 05:19:51;;;;;;;;;;;;;;;;;;5042010;28;20371;-81
2022/10/06 05:22:32;;;;;;;;;;;;;;;;;;5083959;28;19920;-85
2022/10/06 05:24:57;;;;;;;;;;;;;;;;;;5075435;28;19952;-81
2022/10/06 05:27:23;;;;;;;;;;;;;;;;;;5054307;28;19952;-80
2022/10/06 05:29:48;;;;;;;;;;;;;;;;;;5076678;28;19920;-85
2022/10/06 05:32:15;;;;;;;;;;;;;;;;;;5068295;28;20011;-85
2022/10/06 05:35:22;;;;;;;;;;;;;;;;;;5098116;28;19900;-87
2022/10/06 05:37:47;;;;;;;;;;;;;;;;;;5070869;28;19945;-84
2022/10/06 05:40:13;;;;;;;;;;;;;;;;;;5079772;28;20328;-84
2022/10/06 05:42:43;;;;;;;;;;;;;;;;;;5054314;28;19954;-83
2022/10/06 05:45:09;;;;;;;;;;;;;;;;;;5073987;28;19920;-82
2022/10/06 05:47:34;;;;;;;;;;;;;;;;;;5071927;28;20015;-85
2022/10/06 05:50:00;;;;;;;;;;;;;;;;;;5063936;28;20018;-81
2022/10/06 05:52:26;;;;;;;;;;;;;;;;;;5070550;28;20042;-85
2022/10/06 05:55:01;;;;;;;;;;;;;;;;;;5090336;28;19924;-83
2022/10/06 06:11:48;;;;;;;;;;;;;;;;;;4679291;22;20293;-85
2022/10/06 06:17:12;;;;;;;;;;;;;;;;;;5095342;28;19931;-85
2022/10/06 06:19:37;;;;;;;;;;;;;;;;;;5096235;28;19923;-84
2022/10/06 06:22:03;;;;;;;;;;;;;;;;;;5093174;28;20466;-84
2022/10/06 06:24:29;;;;;;;;;;;;;;;;;;5077061;28;19973;-82
2022/10/06 06:27:04;;;;;;;;;;;;;;;;;;5079351;28;19920;-82
2022/10/06 06:29:29;;;;;;;;;;;;;;;;;;5075734;28;19924;-84
2022/10/06 06:31:54;;;;;;;;;;;;;;;;;;5084293;28;19942;-83
2022/10/06 06:34:20;;;;;;;;;;;;;;;;;;5086465;28;20053;-81
2022/10/06 06:36:52;;;;;;;;;;;;;;;;;;5082393;28;19923;-85
2022/10/06 06:39:21;;;;;;;;;;;;;;;;;;5078999;28;19927;-85
2022/10/06 06:41:47;;;;;;;;;;;;;;;;;;5106490;28;19904;-83
2022/10/06 06:44:16;;;;;;;;;;;;;;;;;;5113550;28;19916;-84
2022/10/06 06:46:43;;;;;;;;;;;;;;;;;;5105972;28;19920;-84
2022/10/06 06:49:19;;;;;;;;;;;;;;;;;;5067797;28;19916;-83
2022/10/06 06:51:51;;;;;;;;;;;;;;;;;;5104987;28;19920;-84
2022/10/06 06:54:17;;;;;;;;;;;;;;;;;;5110486;28;20309;-83
2022/10/06 06:56:44;;;;;;;;;;;;;;;;;;5103612;28;19909;-84
2022/10/06 06:59:10;;;;;;;;;;;;;;;;;;5085514;28;19916;-82
2022/10/06 07:01:44;;;;;;;;;;;;;;;;;;5091009;28;19938;-84
2022/10/06 07:04:11;;;;;;;;;;;;;;;;;;5087898;28;19947;-83
2022/10/06 07:06:36;;;;;;;;;;;;;;;;;;5090722;28;19920;-83
2022/10/06 07:09:02;;;;;;;;;;;;;;;;;;5089890;28;19927;-84
2022/10/06 07:11:31;;;;;;;;;;;;;;;;;;5103737;28;19927;-84
2022/10/06 07:14:00;;;;;;;;;;;;;;;;;;5100427;28;20001;-84
2022/10/06 07:27:23;;;;;;;;;;;;;;;;;;5100458;28;19923;-85
2022/10/06 07:29:55;;;;;;;;;;;;;;;;;;5067665;28;20289;-84
2022/10/06 07:32:41;;;;;;;;;;;;;;;;;;5084679;28;20010;-83
2022/10/06 07:35:07;;;;;;;;;;;;;;;;;;5078865;28;19924;-81
2022/10/06 07:37:33;;;;;;;;;;;;;;;;;;5093140;28;19981;-80
2022/10/06 07:39:59;;;;;;;;;;;;;;;;;;5066975;28;19927;-82
2022/10/06 07:42:24;;;;;;;;;;;;;;;;;;5108534;28;19928;-82
2022/10/06 07:47:36;;;;;;;;;;;;;;;;;;5078957;28;20003;-83
2022/10/06 07:50:03;;;;;;;;;;;;;;;;;;5093386;28;20218;-82
2022/10/06 07:52:28;;;;;;;;;;;;;;;;;;5094510;28;20186;-83
2022/10/06 07:54:54;;;;;;;;;;;;;;;;;;5091878;28;19921;-82
2022/10/06 07:57:21;;;;;;;;;;;;;;;;;;5075537;28;20383;-82
2022/10/06 07:59:49;;;;;;;;;;;;;;;;;;5091518;28;20017;-83
2022/10/06 08:02:14;;;;;;;;;;;;;;;;;;5092381;28;19924;-82
2022/10/06 08:04:40;;;;;;;;;;;;;;;;;;5074933;28;19916;-81
2022/10/06 08:07:11;;;;;;;;;;;;;;;;;;5090497;28;20341;-81
2022/10/06 08:09:36;;;;;;;;;;;;;;;;;;5093622;28;20006;-83
2022/10/06 08:12:31;;;;;;;;;;;;;;;;;;5078181;28;20337;-83
2022/10/06 08:14:47;;;;;;;;;;;;;;;;;;5091579;28;19956;-79
2022/10/06 08:17:12;;;;;;;;;;;;;;;;;;5095760;28;20005;-76
2022/10/06 08:19:38;;;;;;;;;;;;;;;;;;5096066;28;19960;-78
2022/10/06 08:22:03;;;;;;;;;;;;;;;;;;5094725;28;20013;-79
2022/10/06 08:24:29;;;;;;;;;;;;;;;;;;5076255;28;20388;-79
2022/10/06 08:26:54;;;;;;;;;;;;;;;;;;5067595;28;20304;-80
2022/10/06 08:29:21;;;;;;;;;;;;;;;;;;5089739;28;19946;-79
2022/10/06 08:31:46;;;;;;;;;;;;;;;;;;5085997;28;19924;-79
2022/10/06 08:34:11;;;;;;;;;;;;;;;;;;5073664;28;19970;-79
2022/10/06 08:36:36;;;;;;;;;;;;;;;;;;5089104;28;20126;-78
2022/10/06 08:39:05;;;;;;;;;;;;;;;;;;5079161;28;19943;-78
2022/10/06 08:41:31;;;;;;;;;;;;;;;;;;5100287;28;19919;-79
2022/10/06 08:44:18;;;;;;;;;;;;;;;;;;5081512;28;19920;-79
2022/10/06 08:46:56;;;;;;;;;;;;;;;;;;5084318;28;19920;-82
2022/10/06 08:49:26;;;;;;;;;;;;;;;;;;5086972;28;19988;-83
2022/10/06 08:51:57;;;;;;;;;;;;;;;;;;5088018;28;19921;-82
2022/10/06 08:54:41;;;;;;;;;;;;;;;;;;5080801;28;19984;-80
2022/10/06 08:57:07;;;;;;;;;;;;;;;;;;5097770;28;20296;-81
2022/10/06 08:59:35;;;;;;;;;;;;;;;;;;5101351;28;19927;-83
2022/10/06 09:02:04;;;;;;;;;;;;;;;;;;5080754;28;19923;-83
2022/10/06 09:04:30;;;;;;;;;;;;;;;;;;5099652;28;20013;-81
2022/10/06 09:07:03;;;;;;;;;;;;;;;;;;5087684;28;20051;-81
2022/10/06 09:09:52;;;;;;;;;;;;;;;;;;5102042;28;19927;-81
2022/10/06 09:12:17;;;;;;;;;;;;;;;;;;5071845;28;19958;-82
2022/10/06 09:14:50;;;;;;;;;;;;;;;;;;5071435;28;20451;-82
2022/10/06 09:17:17;;;;;;;;;;;;;;;;;;5063549;28;19926;-83
2022/10/06 09:19:59;;;;;;;;;;;;;;;;;;5037865;28;20007;-87
2022/10/06 09:22:24;;;;;;;;;;;;;;;;;;5056496;28;19928;-88
2022/10/06 09:24:54;;;;;;;;;;;;;;;;;;5038276;28;19916;-86
2022/10/06 09:27:27;;;;;;;;;;;;;;;;;;5054288;28;20033;-82
2022/10/06 09:29:52;;;;;;;;;;;;;;;;;;5081143;28;19920;-86
2022/10/06 09:32:20;;;;;;;;;;;;;;;;;;5061454;28;20251;-84
2022/10/06 09:34:58;;;;;;;;;;;;;;;;;;5076457;28;19978;-83
2022/10/06 09:37:24;;;;;;;;;;;;;;;;;;5072276;28;20196;-82
2022/10/06 09:40:09;;;;;;;;;;;;;;;;;;5078725;28;19971;-82
2022/10/06 09:42:39;;;;;;;;;;;;;;;;;;5082649;28;20503;-82
2022/10/06 09:45:06;;;;;;;;;;;;;;;;;;5052944;28;19935;-82
2022/10/06 09:47:32;;;;;;;;;;;;;;;;;;5095557;28;20328;-79
2022/10/06 09:50:18;;;;;;;;;;;;;;;;;;5066866;28;20003;-82
2022/10/06 09:53:04;;;;;;;;;;;;;;;;;;5071068;28;19932;-77
2022/10/06 09:55:33;;;;;;;;;;;;;;;;;;5083538;28;19923;-78
2022/10/06 09:57:58;;;;;;;;;;;;;;;;;;5087904;28;19943;-80
2022/10/06 10:00:31;;;;;;;;;;;;;;;;;;5051209;28;20345;-77
2022/10/06 10:02:58;;;;;;;;;;;;;;;;;;5052714;28;19921;-78
2022/10/06 10:05:24;;;;;;;;;;;;;;;;;;5050665;28;19921;-78
2022/10/06 10:08:08;;;;;;;;;;;;;;;;;;5053160;28;19927;-76
2022/10/06 10:10:35;;;;;;;;;;;;;;;;;;5059540;28;19927;-74
2022/10/06 10:13:00;;;;;;;;;;;;;;;;;;5093669;28;20394;-74
2022/10/06 10:15:30;;;;;;;;;;;;;;;;;;5097478;28;19920;-74
2022/10/06 10:18:04;;;;;;;;;;;;;;;;;;5090335;28;19926;-74
2022/10/06 10:20:37;;;;;;;;;;;;;;;;;;5089098;28;19927;-73
2022/10/06 10:23:23;;;;;;;;;;;;;;;;;;5088803;28;19927;-75
2022/10/06 10:26:07;;;;;;;;;;;;;;;;;;5100114;28;19920;-74
2022/10/06 10:28:46;;;;;;;;;;;;;;;;;;5094888;28;19974;-76
2022/10/06 10:31:19;;;;;;;;;;;;;;;;;;5090773;28;19921;-73
2022/10/06 10:34:05;;;;;;;;;;;;;;;;;;5092032;28;19950;-74
2022/10/06 10:36:33;;;;;;;;;;;;;;;;;;5088690;28;20336;-74
2022/10/06 10:39:00;;;;;;;;;;;;;;;;;;5093965;28;19927;-73
2022/10/06 10:41:27;;;;;;;;;;;;;;;;;;5090972;28;19928;-75
2022/10/06 10:43:56;;;;;;;;;;;;;;;;;;5068450;28;19920;-74
2022/10/06 10:46:23;;;;;;;;;;;;;;;;;;5090471;28;19916;-74
2022/10/06 10:48:57;;;;;;;;;;;;;;;;;;5090865;28;20464;-74
2022/10/06 10:51:30;;;;;;;;;;;;;;;;;;5085922;28;19916;-75
2022/10/06 10:54:25;;;;;;;;;;;;;;;;;;5071204;28;19916;-74
2022/10/06 10:56:51;;;;;;;;;;;;;;;;;;5069903;28;19916;-75
2022/10/06 10:59:17;;;;;;;;;;;;;;;;;;5088411;28;19920;-74
2022/10/06 11:02:00;;;;;;;;;;;;;;;;;;5087520;28;19920;-72
2022/10/06 11:04:25;;;;;;;;;;;;;;;;;;5073653;28;19916;-74
2022/10/06 11:06:54;;;;;;;;;;;;;;;;;;5076488;28;20015;-73
2022/10/06 11:09:45;;;;;;;;;;;;;;;;;;5094019;28;20419;-74
2022/10/06 11:12:20;;;;;;;;;;;;;;;;;;5071301;28;19928;-73
2022/10/06 11:14:56;;;;;;;;;;;;;;;;;;5072197;28;19924;-73
2022/10/06 11:17:43;;;;;;;;;;;;;;;;;;5057196;28;19921;-72
2022/10/06 11:20:14;;;;;;;;;;;;;;;;;;5075861;28;19920;-73
2022/10/06 11:22:52;;;;;;;;;;;;;;;;;;5073668;28;20367;-75
2022/10/06 11:25:18;;;;;;;;;;;;;;;;;;5093737;28;19920;-74
2022/10/06 11:28:02;;;;;;;;;;;;;;;;;;5092705;28;19916;-76
2022/10/06 11:30:29;;;;;;;;;;;;;;;;;;5078973;28;19913;-74
2022/10/06 11:32:55;;;;;;;;;;;;;;;;;;5067651;28;20257;-75
2022/10/06 11:35:21;;;;;;;;;;;;;;;;;;5070282;28;19913;-76
2022/10/06 11:37:52;;;;;;;;;;;;;;;;;;5067531;28;19920;-75
2022/10/06 11:40:18;;;;;;;;;;;;;;;;;;5059929;28;20401;-76
2022/10/06 11:42:46;;;;;;;;;;;;;;;;;;5069697;28;20003;-76
2022/10/06 11:45:12;;;;;;;;;;;;;;;;;;5070614;28;19916;-75
2022/10/06 11:47:53;;;;;;;;;;;;;;;;;;5077345;28;19916;-75
2022/10/06 11:50:30;;;;;;;;;;;;;;;;;;5050193;28;20333;-75
2022/10/06 11:52:55;;;;;;;;;;;;;;;;;;5049680;28;19917;-76
2022/10/06 11:55:22;;;;;;;;;;;;;;;;;;5051905;28;19974;-75
2022/10/06 11:57:57;;;;;;;;;;;;;;;;;;5066810;28;20018;-75
2022/10/06 12:00:22;;;;;;;;;;;;;;;;;;5052987;28;20368;-76
2022/10/06 12:02:47;;;;;;;;;;;;;;;;;;5052561;28;19959;-75
2022/10/06 12:05:18;;;;;;;;;;;;;;;;;;5053212;28;19923;-75
2022/10/06 12:07:53;;;;;;;;;;;;;;;;;;5053910;28;19924;-75
2022/10/06 12:10:27;;;;;;;;;;;;;;;;;;5061408;28;20014;-76
2022/10/06 12:12:58;;;;;;;;;;;;;;;;;;5075613;28;19916;-76
2022/10/06 12:15:49;;;;;;;;;;;;;;;;;;5076993;28;19920;-76
2022/10/06 12:18:15;;;;;;;;;;;;;;;;;;5060013;28;19917;-76
2022/10/06 12:20:46;;;;;;;;;;;;;;;;;;5076597;28;19917;-76
2022/10/06 12:23:14;;;;;;;;;;;;;;;;;;5075166;28;19917;-75
2022/10/06 12:25:41;;;;;;;;;;;;;;;;;;5076745;28;19917;-75
2022/10/06 12:28:26;;;;;;;;;;;;;;;;;;5075999;28;19916;-76
2022/10/06 12:31:09;;;;;;;;;;;;;;;;;;5076727;28;19955;-75
2022/10/06 12:33:36;;;;;;;;;;;;;;;;;;5076436;28;20019;-75
2022/10/06 12:36:02;;;;;;;;;;;;;;;;;;5075325;28;19928;-76
2022/10/06 12:38:31;;;;;;;;;;;;;;;;;;5074781;28;19916;-76
2022/10/06 12:40:58;;;;;;;;;;;;;;;;;;5075537;28;19917;-76
2022/10/06 12:43:27;;;;;;;;;;;;;;;;;;5076451;28;19917;-76
2022/10/06 12:45:55;;;;;;;;;;;;;;;;;;5076102;28;20006;-75
2022/10/06 12:48:30;;;;;;;;;;;;;;;;;;5076058;28;19923;-75
2022/10/06 12:51:03;;;;;;;;;;;;;;;;;;5074378;28;19912;-76
2022/10/06 12:53:31;;;;;;;;;;;;;;;;;;5075892;28;19923;-76
2022/10/06 12:55:59;;;;;;;;;;;;;;;;;;5074623;28;19912;-76
2022/10/06 12:58:28;;;;;;;;;;;;;;;;;;5074916;28;19939;-76
2022/10/06 13:00:58;;;;;;;;;;;;;;;;;;5075570;28;19920;-75
2022/10/06 13:03:23;;;;;;;;;;;;;;;;;;5075638;28;19968;-76
2022/10/06 13:05:52;;;;;;;;;;;;;;;;;;5074393;28;19924;-76
2022/10/06 13:08:22;;;;;;;;;;;;;;;;;;5074580;28;20317;-76
2022/10/06 13:10:47;;;;;;;;;;;;;;;;;;5074798;28;20334;-76
2022/10/06 13:13:22;;;;;;;;;;;;;;;;;;5076094;28;20019;-75
2022/10/06 13:15:47;;;;;;;;;;;;;;;;;;5075535;28;19923;-75
2022/10/06 13:18:13;;;;;;;;;;;;;;;;;;5073929;28;20002;-77
2022/10/06 13:20:38;;;;;;;;;;;;;;;;;;5074471;28;19917;-78
2022/10/06 13:23:05;;;;;;;;;;;;;;;;;;5075647;28;20380;-77
2022/10/06 13:25:54;;;;;;;;;;;;;;;;;;5074488;28;19912;-78
2022/10/06 13:28:19;;;;;;;;;;;;;;;;;;5069396;28;19920;-78
2022/10/06 13:30:54;;;;;;;;;;;;;;;;;;5075305;28;19942;-77
2022/10/06 13:33:20;;;;;;;;;;;;;;;;;;5057537;28;19924;-77
2022/10/06 13:35:47;;;;;;;;;;;;;;;;;;5074588;28;19912;-78
2022/10/06 13:38:12;;;;;;;;;;;;;;;;;;5074777;28;19917;-77
2022/10/06 13:40:37;;;;;;;;;;;;;;;;;;5074855;28;20333;-77
2022/10/06 13:43:03;;;;;;;;;;;;;;;;;;5075354;28;20253;-78
2022/10/06 13:45:28;;;;;;;;;;;;;;;;;;5074992;28;19924;-79
2022/10/06 13:48:15;;;;;;;;;;;;;;;;;;5074840;28;19948;-78
2022/10/06 13:50:44;;;;;;;;;;;;;;;;;;5073741;28;19916;-78
2022/10/06 13:53:22;;;;;;;;;;;;;;;;;;5074884;28;19948;-78
2022/10/06 13:55:48;;;;;;;;;;;;;;;;;;5074873;28;19998;-78
2022/10/06 13:58:15;;;;;;;;;;;;;;;;;;5074816;28;19967;-78
2022/10/06 14:00:45;;;;;;;;;;;;;;;;;;5074991;28;19932;-78
2022/10/06 14:03:10;;;;;;;;;;;;;;;;;;5074687;28;19917;-77
2022/10/06 14:05:36;;;;;;;;;;;;;;;;;;5074810;28;19916;-78
2022/10/06 14:08:03;;;;;;;;;;;;;;;;;;5073218;28;19921;-78
2022/10/06 14:10:34;;;;;;;;;;;;;;;;;;5070194;28;19928;-78
2022/10/06 14:13:00;;;;;;;;;;;;;;;;;;5054965;28;20213;-77
2022/10/06 14:15:26;;;;;;;;;;;;;;;;;;5054618;28;19996;-79
2022/10/06 14:17:52;;;;;;;;;;;;;;;;;;5054468;28;20383;-78
2022/10/06 14:20:36;;;;;;;;;;;;;;;;;;5054256;28;20311;-78
2022/10/06 14:23:01;;;;;;;;;;;;;;;;;;5070085;28;20301;-77
2022/10/06 14:25:26;;;;;;;;;;;;;;;;;;5054383;28;20012;-78
2022/10/06 14:27:53;;;;;;;;;;;;;;;;;;5053212;28;19917;-78
2022/10/06 14:30:18;;;;;;;;;;;;;;;;;;5069924;28;19998;-79
2022/10/06 14:32:43;;;;;;;;;;;;;;;;;;5055174;28;19960;-78
2022/10/06 14:35:09;;;;;;;;;;;;;;;;;;5054412;28;19964;-78
2022/10/06 14:37:35;;;;;;;;;;;;;;;;;;5069647;28;19917;-79
2022/10/06 14:40:00;;;;;;;;;;;;;;;;;;5054246;28;19988;-78
2022/10/06 14:42:25;;;;;;;;;;;;;;;;;;5054239;28;19960;-78
2022/10/06 14:44:51;;;;;;;;;;;;;;;;;;5036671;28;19917;-79
2022/10/06 14:47:16;;;;;;;;;;;;;;;;;;5054250;28;19962;-79
2022/10/06 14:49:43;;;;;;;;;;;;;;;;;;5054302;28;19934;-79
2022/10/06 14:52:09;;;;;;;;;;;;;;;;;;5054511;28;19916;-78
2022/10/06 14:54:35;;;;;;;;;;;;;;;;;;5054191;28;19917;-79
2022/10/06 14:57:00;;;;;;;;;;;;;;;;;;5036313;28;20344;-78
2022/10/06 14:59:26;;;;;;;;;;;;;;;;;;5053987;28;20003;-79
2022/10/06 15:01:52;;;;;;;;;;;;;;;;;;5054185;28;20316;-79
2022/10/06 15:04:18;;;;;;;;;;;;;;;;;;5054058;28;19920;-78
2022/10/06 15:09:27;;;;;;;;;;;;;;;;;;5054054;28;20114;-78
2022/10/06 15:11:53;;;;;;;;;;;;;;;;;;5072276;28;20015;-78
2022/10/06 15:14:18;;;;;;;;;;;;;;;;;;5072734;28;19921;-78
2022/10/06 15:16:44;;;;;;;;;;;;;;;;;;5072704;28;19917;-77
2022/10/06 15:19:10;;;;;;;;;;;;;;;;;;5072930;28;19917;-77
2022/10/06 15:21:38;;;;;;;;;;;;;;;;;;5072754;28;20377;-78
2022/10/06 15:24:04;;;;;;;;;;;;;;;;;;5074102;28;20241;-78
2022/10/06 15:29:13;;;;;;;;;;;;;;;;;;5073804;28;19924;-78
2022/10/06 15:31:42;;;;;;;;;;;;;;;;;;5073697;28;19916;-78
2022/10/06 15:34:11;;;;;;;;;;;;;;;;;;5072680;28;19982;-78
2022/10/06 15:36:37;;;;;;;;;;;;;;;;;;5073689;28;20234;-78
2022/10/06 15:39:04;;;;;;;;;;;;;;;;;;5073660;28;19917;-78
2022/10/06 15:41:29;;;;;;;;;;;;;;;;;;5072122;28;19916;-78
2022/10/06 15:43:55;;;;;;;;;;;;;;;;;;5073526;28;20230;-77
2022/10/06 15:46:27;;;;;;;;;;;;;;;;;;5073544;28;19944;-78
2022/10/06 15:48:53;;;;;;;;;;;;;;;;;;5076933;28;19917;-77
2022/10/06 15:51:19;;;;;;;;;;;;;;;;;;5077266;28;20241;-79
2022/10/06 15:53:45;;;;;;;;;;;;;;;;;;5059276;28;19999;-77
2022/10/06 15:56:10;;;;;;;;;;;;;;;;;;5075868;28;20295;-78
2022/10/06 15:58:36;;;;;;;;;;;;;;;;;;5077587;28;20046;-78
2022/10/06 16:01:02;;;;;;;;;;;;;;;;;;5077149;28;20321;-78
2022/10/06 16:03:37;;;;;;;;;;;;;;;;;;5077059;28;19980;-78
2022/10/06 16:06:04;;;;;;;;;;;;;;;;;;5076870;28;19931;-78
2022/10/06 16:08:33;;;;;;;;;;;;;;;;;;5075792;28;20011;-78
2022/10/06 16:10:58;;;;;;;;;;;;;;;;;;5076623;28;19921;-77
2022/10/06 16:13:24;;;;;;;;;;;;;;;;;;5076873;28;19947;-77
2022/10/06 16:15:52;;;;;;;;;;;;;;;;;;5077049;28;19916;-78
2022/10/06 16:18:17;;;;;;;;;;;;;;;;;;5058925;28;19920;-77
2022/10/06 16:20:43;;;;;;;;;;;;;;;;;;5077172;28;20296;-78
2022/10/06 16:23:08;;;;;;;;;;;;;;;;;;5076756;28;19975;-78
2022/10/06 16:25:33;;;;;;;;;;;;;;;;;;5076680;28;20248;-78
2022/10/06 16:27:59;;;;;;;;;;;;;;;;;;5058820;28;19950;-77
2022/10/06 16:30:24;;;;;;;;;;;;;;;;;;5075536;28;19955;-78
2022/10/06 16:32:49;;;;;;;;;;;;;;;;;;5058435;28;20332;-78
2022/10/06 16:35:15;;;;;;;;;;;;;;;;;;5075198;28;19916;-78
2022/10/06 16:37:47;;;;;;;;;;;;;;;;;;5076356;28;19979;-78
2022/10/06 16:40:16;;;;;;;;;;;;;;;;;;5076212;28;19916;-79
2022/10/06 16:42:43;;;;;;;;;;;;;;;;;;5076107;28;19937;-77
2022/10/06 16:45:09;;;;;;;;;;;;;;;;;;5076354;28;19923;-78
2022/10/06 16:47:34;;;;;;;;;;;;;;;;;;5075392;28;20010;-77
2022/10/06 16:50:00;;;;;;;;;;;;;;;;;;5076137;28;19917;-77
2022/10/06 16:52:25;;;;;;;;;;;;;;;;;;5075978;28;19982;-78
2022/10/06 16:54:50;;;;;;;;;;;;;;;;;;5076462;28;19917;-77
2022/10/06 16:57:16;;;;;;;;;;;;;;;;;;5076298;28;19916;-78
2022/10/06 16:59:41;;;;;;;;;;;;;;;;;;5057183;28;19920;-77
2022/10/06 17:02:07;;;;;;;;;;;;;;;;;;5075631;28;20364;-77
2022/10/06 17:04:32;;;;;;;;;;;;;;;;;;5075914;28;19916;-78
2022/10/06 17:06:58;;;;;;;;;;;;;;;;;;5076235;28;19923;-78
2022/10/06 17:09:24;;;;;;;;;;;;;;;;;;5074566;28;19975;-78
2022/10/06 17:11:50;;;;;;;;;;;;;;;;;;5075685;28;19978;-78
2022/10/06 17:14:15;;;;;;;;;;;;;;;;;;5075616;28;19917;-78
2022/10/06 17:16:41;;;;;;;;;;;;;;;;;;5074589;28;19916;-77
2022/10/06 17:19:07;;;;;;;;;;;;;;;;;;5074727;28;19916;-77
2022/10/06 17:21:32;;;;;;;;;;;;;;;;;;5075507;28;19939;-77
2022/10/06 17:23:58;;;;;;;;;;;;;;;;;;5075460;28;19959;-79
2022/10/06 17:26:26;;;;;;;;;;;;;;;;;;5075561;28;20329;-78
2022/10/06 17:28:52;;;;;;;;;;;;;;;;;;5074237;28;19916;-77
2022/10/06 17:31:21;;;;;;;;;;;;;;;;;;5095929;28;19922;-78
2022/10/06 17:33:46;;;;;;;;;;;;;;;;;;5097645;28;19912;-77